Terminal Aerodrome Forecast
Issued by NWS Missoula, MT

Home | Current Version | Previous Version | Text Only | Print | Product List | Glossary On
Versions: 1 2 3 4 5 6 7 8 9 10 11 12 13 14 15 16 17 18 19 20
000
FTUS45 KMSO 311150
TAFGPI
TAF
KGPI 311150Z 3112/0112 00000KT 1/4SM FG VV001
      TEMPO 3112/3114 2SM BR SCT001
     FM311600 VRB03KT 4SM BR FEW004 SCT150
     FM311800 19004KT P6SM SCT150=

USA.gov is the U.S. government's official web portal to all federal, state and local government web resources and services.